createdAt,value
2019-05-25T00:00:47.951Z,16.49
2019-05-25T00:01:47.940Z,16.50
2019-05-25T00:02:48.040Z,16.50
2019-05-25T00:03:47.933Z,16.49
2019-05-25T00:04:47.931Z,16.50
2019-05-25T00:05:47.892Z,16.49
2019-05-25T00:06:47.882Z,16.49
2019-05-25T00:07:47.864Z,16.48
2019-05-25T00:08:47.864Z,16.45
2019-05-25T00:09:48.664Z,16.44
2019-05-25T00:10:48.682Z,16.42
2019-05-25T00:11:47.856Z,16.41
2019-05-25T00:12:47.854Z,16.37
2019-05-25T00:13:47.864Z,16.35
2019-05-25T00:14:47.857Z,16.33
2019-05-25T00:15:47.826Z,16.33
2019-05-25T00:16:47.801Z,16.31
2019-05-25T00:17:47.838Z,16.27
2019-05-25T00:18:47.747Z,16.27
2019-05-25T00:19:47.734Z,16.26
2019-05-25T00:20:47.725Z,16.26
2019-05-25T00:21:47.821Z,16.27
2019-05-25T00:22:47.728Z,16.27
2019-05-25T00:23:47.703Z,16.30
2019-05-25T00:24:47.694Z,16.27
2019-05-25T00:25:47.663Z,16.27
2019-05-25T00:26:47.686Z,16.27
2019-05-25T00:27:47.655Z,16.25
2019-05-25T00:28:47.646Z,16.25
2019-05-25T00:29:47.635Z,16.23
2019-05-25T00:30:47.625Z,16.23
2019-05-25T00:31:47.627Z,16.18
2019-05-25T00:32:47.628Z,16.16
2019-05-25T00:33:47.632Z,16.15
2019-05-25T00:34:47.574Z,16.15
2019-05-25T00:35:47.559Z,16.15
2019-05-25T00:36:47.609Z,16.12
2019-05-25T00:37:47.542Z,16.12
2019-05-25T00:38:47.534Z,16.11
2019-05-25T00:39:47.505Z,16.11
2019-05-25T00:40:47.510Z,16.11
2019-05-25T00:41:47.524Z,16.07
2019-05-25T00:42:47.486Z,16.07
2019-05-25T00:43:47.589Z,16.06
2019-05-25T00:44:47.468Z,16.06
2019-05-25T00:45:47.447Z,16.04
2019-05-25T00:46:47.448Z,16.04
2019-05-25T00:47:47.442Z,16.04
2019-05-25T00:48:47.448Z,16.01
2019-05-25T00:49:47.426Z,16.01
2019-05-25T00:50:47.397Z,16.01
2019-05-25T00:51:48.174Z,16.03
2019-05-25T00:52:47.386Z,16.00
2019-05-25T00:53:47.436Z,15.97
2019-05-25T00:54:47.376Z,15.94
2019-05-25T00:55:47.370Z,15.93
2019-05-25T00:56:47.344Z,15.89
2019-05-25T00:57:47.317Z,15.86
2019-05-25T00:58:47.333Z,15.85
2019-05-25T00:59:47.307Z,15.82
2019-05-25T01:00:47.291Z,15.79
2019-05-25T01:01:47.276Z,15.74
2019-05-25T01:02:47.299Z,15.72
2019-05-25T01:03:47.278Z,15.70
2019-05-25T01:04:47.250Z,15.67
2019-05-25T01:05:47.228Z,15.64
2019-05-25T01:06:47.217Z,15.61
2019-05-25T01:07:47.215Z,15.60
2019-05-25T01:08:47.235Z,15.54
2019-05-25T01:09:47.188Z,15.52
2019-05-25T01:10:47.185Z,15.51
2019-05-25T01:11:47.167Z,15.51
2019-05-25T01:12:47.160Z,15.54
2019-05-25T01:13:47.171Z,15.52
2019-05-25T01:14:47.141Z,15.52
2019-05-25T01:15:47.118Z,15.52
2019-05-25T01:16:47.129Z,15.52
2019-05-25T01:17:47.099Z,15.51
2019-05-25T01:18:47.580Z,15.52
2019-05-25T01:19:47.110Z,15.49
2019-05-25T01:20:47.069Z,15.49
2019-05-25T01:21:47.108Z,15.48
2019-05-25T01:22:47.059Z,15.45
2019-05-25T01:23:47.059Z,15.43
2019-05-25T01:24:47.048Z,15.42
2019-05-25T01:25:47.009Z,15.41
2019-05-25T01:26:47.054Z,15.38
2019-05-25T01:27:46.989Z,15.36
2019-05-25T01:28:47.019Z,15.35
2019-05-25T01:29:46.971Z,15.30
2019-05-25T01:30:46.961Z,15.28
2019-05-25T01:31:46.999Z,15.26
2019-05-25T01:32:46.931Z,15.23
2019-05-25T01:33:46.929Z,15.23
2019-05-25T01:34:47.470Z,15.21
2019-05-25T01:35:46.906Z,15.20
2019-05-25T01:36:46.947Z,15.20
2019-05-25T01:37:48.632Z,15.15
2019-05-25T01:38:46.912Z,15.15
2019-05-25T01:39:46.850Z,15.13
2019-05-25T01:40:46.849Z,15.09
2019-05-25T01:41:46.865Z,15.09
2019-05-25T01:42:46.823Z,15.06
2019-05-25T01:43:46.811Z,15.06
2019-05-25T01:44:46.845Z,15.06
2019-05-25T01:45:46.790Z,15.11
2019-05-25T01:46:46.810Z,15.08
2019-05-25T01:47:46.771Z,15.05
2019-05-25T01:48:46.762Z,15.01
2019-05-25T01:49:46.743Z,14.98
2019-05-25T01:50:46.734Z,14.95
2019-05-25T01:51:46.779Z,14.91
2019-05-25T01:52:46.722Z,14.88
2019-05-25T01:53:46.703Z,14.88
2019-05-25T01:54:58.832Z,14.86
2019-05-25T01:55:47.674Z,14.83
2019-05-25T01:56:46.691Z,14.80
2019-05-25T01:57:46.682Z,14.78
2019-05-25T01:58:46.644Z,14.78
2019-05-25T01:59:46.644Z,14.75
2019-05-25T02:00:46.626Z,14.74
2019-05-25T02:01:46.612Z,14.72
2019-05-25T02:02:46.623Z,14.71
2019-05-25T02:03:46.593Z,14.68
2019-05-25T02:04:46.610Z,14.68
2019-05-25T02:05:46.573Z,14.65
2019-05-25T02:06:46.566Z,14.62
2019-05-25T02:07:46.551Z,14.64
2019-05-25T02:08:46.530Z,14.61
2019-05-25T02:09:46.551Z,14.62
2019-05-25T02:10:46.513Z,14.64
2019-05-25T02:11:46.504Z,14.65
2019-05-25T02:12:46.492Z,14.67
2019-05-25T02:13:46.482Z,14.67
2019-05-25T02:14:46.493Z,14.67
2019-05-25T02:15:46.459Z,14.67
2019-05-25T02:16:46.453Z,14.67
2019-05-25T02:17:46.461Z,14.65
2019-05-25T02:18:46.439Z,14.64
2019-05-25T02:19:46.415Z,14.67
2019-05-25T02:20:46.420Z,14.67
2019-05-25T02:21:46.393Z,14.69
2019-05-25T02:22:46.405Z,14.71
2019-05-25T02:23:46.381Z,14.72
2019-05-25T02:24:46.363Z,14.74
2019-05-25T02:25:46.392Z,14.75
2019-05-25T02:26:46.391Z,14.78
2019-05-25T02:27:46.402Z,14.80
2019-05-25T02:28:46.322Z,14.78
2019-05-25T02:29:46.316Z,14.78
2019-05-25T02:30:46.314Z,14.80
2019-05-25T02:31:46.286Z,14.80
2019-05-25T02:32:46.303Z,14.80
2019-05-25T02:33:46.303Z,14.80
2019-05-25T02:34:46.257Z,14.80
2019-05-25T02:35:46.237Z,14.78
2019-05-25T02:36:46.874Z,14.78
2019-05-25T02:37:46.322Z,14.75
2019-05-25T02:38:46.868Z,14.71
2019-05-25T02:39:46.214Z,14.69
2019-05-25T02:40:46.237Z,14.69
2019-05-25T02:41:46.173Z,14.71
2019-05-25T02:42:46.206Z,14.72
2019-05-25T02:43:46.179Z,14.72
2019-05-25T02:44:46.162Z,14.72
2019-05-25T02:45:46.131Z,14.72
2019-05-25T02:46:46.199Z,14.71
2019-05-25T02:47:46.166Z,14.71
2019-05-25T02:48:46.151Z,14.72
2019-05-25T02:49:46.146Z,14.72
2019-05-25T02:50:46.151Z,14.72
2019-05-25T02:51:46.057Z,14.71
2019-05-25T02:52:46.092Z,14.69
2019-05-25T02:53:46.071Z,14.68
2019-05-25T02:54:46.038Z,14.65
2019-05-25T02:55:46.020Z,14.64
2019-05-25T02:56:46.019Z,14.64
2019-05-25T02:57:45.998Z,14.64
2019-05-25T02:58:46.005Z,14.62
2019-05-25T02:59:45.978Z,14.64
2019-05-25T03:00:45.995Z,14.62
2019-05-25T03:01:45.957Z,14.62
2019-05-25T03:02:47.044Z,14.62
2019-05-25T03:03:46.695Z,14.62
2019-05-25T03:04:45.957Z,14.61
2019-05-25T03:05:46.009Z,14.61
2019-05-25T03:06:45.912Z,14.61
2019-05-25T03:07:45.894Z,14.61
2019-05-25T03:08:45.875Z,14.62
2019-05-25T03:09:45.881Z,14.61
2019-05-25T03:10:45.911Z,14.61
2019-05-25T03:11:45.851Z,14.61
2019-05-25T03:12:45.858Z,14.61
2019-05-25T03:13:45.838Z,14.61
2019-05-25T03:14:45.808Z,14.60
2019-05-25T03:15:45.856Z,14.57
2019-05-25T03:16:45.814Z,14.56
2019-05-25T03:17:45.816Z,14.54
2019-05-25T03:18:45.794Z,14.54
2019-05-25T03:19:45.766Z,14.54
2019-05-25T03:20:45.784Z,14.50
2019-05-25T03:21:45.736Z,14.49
2019-05-25T03:22:45.785Z,14.49
2019-05-25T03:23:45.711Z,14.49
2019-05-25T03:24:45.708Z,14.47
2019-05-25T03:25:49.483Z,14.49
2019-05-25T03:26:45.708Z,14.50
2019-05-25T03:27:45.762Z,14.49
2019-05-25T03:28:45.657Z,14.49
2019-05-25T03:29:45.718Z,14.47
2019-05-25T03:30:45.637Z,14.46
2019-05-25T03:31:45.636Z,14.47
2019-05-25T03:32:45.628Z,14.46
2019-05-25T03:33:45.625Z,14.44
2019-05-25T03:34:45.659Z,14.44
2019-05-25T03:35:45.585Z,14.44
2019-05-25T03:36:45.576Z,14.42
2019-05-25T03:37:45.633Z,14.42
2019-05-25T03:38:45.546Z,14.39
2019-05-25T03:39:45.560Z,14.38
2019-05-25T03:40:45.558Z,14.38
2019-05-25T03:41:45.523Z,14.38
2019-05-25T03:42:45.537Z,14.38
2019-05-25T03:43:45.502Z,14.37
2019-05-25T03:44:45.488Z,14.37
2019-05-25T03:45:46.379Z,14.35
2019-05-25T03:46:45.486Z,14.34
2019-05-25T03:47:45.533Z,14.31
2019-05-25T03:48:45.442Z,14.27
2019-05-25T03:49:45.426Z,14.25
2019-05-25T03:50:45.438Z,14.20
2019-05-25T03:51:45.408Z,14.17
2019-05-25T03:52:45.389Z,14.16
2019-05-25T03:53:45.388Z,14.16
2019-05-25T03:54:45.411Z,14.17
2019-05-25T03:55:45.402Z,14.17
2019-05-25T03:56:45.348Z,14.19
2019-05-25T03:57:45.340Z,14.20
2019-05-25T03:58:45.351Z,14.21
2019-05-25T03:59:45.321Z,14.21
2019-05-25T04:00:45.341Z,14.21
2019-05-25T04:01:45.300Z,14.24
2019-05-25T04:02:45.311Z,14.24
2019-05-25T04:03:45.278Z,14.24
2019-05-25T04:04:45.332Z,14.25
2019-05-25T04:05:45.272Z,14.25
2019-05-25T04:06:45.351Z,14.21
2019-05-25T04:07:45.235Z,14.17
2019-05-25T04:08:45.221Z,14.13
2019-05-25T04:09:45.270Z,14.12
2019-05-25T04:10:45.210Z,14.13
2019-05-25T04:11:45.259Z,14.16
2019-05-25T04:12:45.210Z,14.17
2019-05-25T04:13:45.201Z,14.17
2019-05-25T04:14:45.237Z,14.17
2019-05-25T04:15:45.185Z,14.16
2019-05-25T04:16:45.261Z,14.16
2019-05-25T04:17:45.182Z,14.14
2019-05-25T04:18:45.140Z,14.16
2019-05-25T04:19:45.091Z,14.16
2019-05-25T04:20:45.086Z,14.14
2019-05-25T04:21:45.102Z,14.14
2019-05-25T04:22:45.061Z,14.13
2019-05-25T04:23:45.052Z,14.16
2019-05-25T04:24:45.072Z,14.17
2019-05-25T04:25:45.041Z,14.20
2019-05-25T04:26:45.057Z,14.27
2019-05-25T04:27:45.013Z,14.28
2019-05-25T04:28:44.995Z,14.29
2019-05-25T04:29:44.985Z,14.29
2019-05-25T04:30:44.971Z,14.31
2019-05-25T04:31:45.013Z,14.31
2019-05-25T04:32:44.958Z,14.32
2019-05-25T04:33:44.943Z,14.35
2019-05-25T04:34:44.931Z,14.39
2019-05-25T04:35:44.953Z,14.38
2019-05-25T04:36:44.911Z,14.39
2019-05-25T04:37:44.895Z,14.39
2019-05-25T04:38:44.911Z,14.38
2019-05-25T04:39:44.903Z,14.42
2019-05-25T04:40:44.897Z,14.43
2019-05-25T04:41:44.852Z,14.44
2019-05-25T04:42:44.852Z,14.46
2019-05-25T04:43:44.850Z,14.46
2019-05-25T04:44:44.841Z,14.49
2019-05-25T04:45:44.833Z,14.53
2019-05-25T04:46:44.802Z,14.54
2019-05-25T04:47:44.785Z,14.57
2019-05-25T04:48:44.782Z,14.61
2019-05-25T04:49:44.795Z,14.65
2019-05-25T04:50:44.763Z,14.64
2019-05-25T04:51:44.753Z,14.67
2019-05-25T04:52:44.765Z,14.69
2019-05-25T04:53:44.720Z,14.71
2019-05-25T04:54:44.750Z,14.71
2019-05-25T04:55:44.704Z,14.72
2019-05-25T04:56:44.696Z,14.75
2019-05-25T04:57:44.675Z,14.81
2019-05-25T04:58:44.666Z,14.86
2019-05-25T04:59:44.680Z,14.91
2019-05-25T05:00:44.645Z,14.99
2019-05-25T05:01:44.638Z,15.06
2019-05-25T05:02:44.624Z,15.12
2019-05-25T05:03:44.646Z,15.13
2019-05-25T05:04:44.601Z,15.17
2019-05-25T05:05:44.583Z,15.26
2019-05-25T05:06:44.609Z,15.30
2019-05-25T05:07:44.586Z,15.36
2019-05-25T05:08:44.595Z,15.42
2019-05-25T05:09:44.542Z,15.46
2019-05-25T05:10:44.614Z,15.52
2019-05-25T05:11:44.523Z,15.57
2019-05-25T05:12:44.520Z,15.63
2019-05-25T05:13:44.526Z,15.64
2019-05-25T05:14:44.494Z,15.67
2019-05-25T05:15:44.504Z,15.72
2019-05-25T05:16:44.464Z,15.75
2019-05-25T05:17:44.453Z,15.78
2019-05-25T05:18:44.445Z,15.84
2019-05-25T05:19:44.447Z,15.88
2019-05-25T05:20:44.472Z,15.93
2019-05-25T05:21:44.413Z,15.96
2019-05-25T05:22:44.405Z,15.96
2019-05-25T05:23:44.405Z,16.03
2019-05-25T05:24:44.382Z,16.11
2019-05-25T05:25:44.397Z,16.15
2019-05-25T05:26:55.425Z,16.23
2019-05-25T05:27:45.348Z,16.30
2019-05-25T05:28:44.379Z,16.34
2019-05-25T05:29:44.329Z,16.42
2019-05-25T05:30:44.408Z,16.44
2019-05-25T05:31:44.303Z,16.49
2019-05-25T05:32:44.293Z,16.56
2019-05-25T05:33:44.363Z,16.60
2019-05-25T05:34:44.264Z,16.60
2019-05-25T05:35:44.294Z,16.59
2019-05-25T05:36:44.274Z,16.58
2019-05-25T05:37:44.236Z,16.63
2019-05-25T05:38:44.232Z,16.71
2019-05-25T05:39:44.215Z,16.81
2019-05-25T05:40:44.252Z,16.88
2019-05-25T05:41:44.201Z,16.98
2019-05-25T05:42:44.182Z,17.00
2019-05-25T05:43:44.166Z,17.04
2019-05-25T05:44:44.178Z,17.08
2019-05-25T05:45:44.421Z,17.11
2019-05-25T05:46:44.135Z,17.15
2019-05-25T05:47:44.136Z,17.20
2019-05-25T05:48:44.663Z,17.35
2019-05-25T05:49:44.148Z,17.53
2019-05-25T05:50:44.118Z,17.71
2019-05-25T05:51:44.095Z,17.92
2019-05-25T05:52:44.096Z,18.07
2019-05-25T05:53:44.068Z,18.29
2019-05-25T05:54:44.048Z,18.54
2019-05-25T05:55:44.036Z,18.80
2019-05-25T05:56:44.027Z,19.05
2019-05-25T05:57:44.045Z,19.28
2019-05-25T05:58:44.009Z,19.47
2019-05-25T05:59:44.005Z,19.73
2019-05-25T06:00:43.977Z,19.93
2019-05-25T06:01:43.976Z,20.18
2019-05-25T06:02:43.989Z,20.41
2019-05-25T06:03:43.946Z,20.46
2019-05-25T06:04:43.939Z,20.61
2019-05-25T06:05:43.929Z,20.79
2019-05-25T06:06:43.928Z,20.95
2019-05-25T06:07:43.944Z,21.19
2019-05-25T06:08:43.895Z,21.35
2019-05-25T06:09:43.893Z,21.54
2019-05-25T06:10:43.885Z,21.71
2019-05-25T06:11:43.879Z,21.90
2019-05-25T06:12:43.888Z,22.10
2019-05-25T06:13:43.905Z,22.19
2019-05-25T06:14:43.837Z,22.25
2019-05-25T06:15:43.819Z,22.28
2019-05-25T06:16:43.840Z,22.41
2019-05-25T06:17:43.799Z,22.47
2019-05-25T06:18:43.841Z,22.39
2019-05-25T06:19:43.774Z,22.46
2019-05-25T06:20:43.791Z,22.72
2019-05-25T06:21:43.820Z,22.92
2019-05-25T06:22:43.790Z,23.14
2019-05-25T06:23:43.729Z,23.24
2019-05-25T06:24:43.804Z,22.96
2019-05-25T06:25:43.710Z,22.60
2019-05-25T06:26:43.697Z,22.59
2019-05-25T06:27:44.431Z,22.68
2019-05-25T06:28:43.680Z,22.80
2019-05-25T06:29:43.669Z,23.12
2019-05-25T06:30:43.680Z,23.39
2019-05-25T06:31:43.640Z,23.61
2019-05-25T06:32:43.640Z,23.86
2019-05-25T06:33:43.628Z,24.12
2019-05-25T06:34:43.660Z,24.31
2019-05-25T06:35:43.602Z,24.44
2019-05-25T06:36:43.593Z,24.53
2019-05-25T06:37:43.590Z,24.67
2019-05-25T06:38:43.574Z,24.71
2019-05-25T06:39:43.583Z,24.67
2019-05-25T06:40:43.544Z,24.56
2019-05-25T06:41:43.560Z,24.52
2019-05-25T06:42:43.523Z,24.54
2019-05-25T06:43:43.512Z,24.68
2019-05-25T06:44:43.536Z,24.88
2019-05-25T06:45:43.494Z,24.92
2019-05-25T06:46:43.514Z,24.79
2019-05-25T06:47:43.475Z,24.61
2019-05-25T06:48:43.455Z,23.94
2019-05-25T06:49:43.446Z,23.80
2019-05-25T06:50:43.441Z,23.85
2019-05-25T06:51:43.444Z,23.57
2019-05-25T06:52:43.441Z,22.92
2019-05-25T06:53:43.404Z,22.77
2019-05-25T06:54:43.452Z,22.82
2019-05-25T06:55:43.408Z,23.01
2019-05-25T06:56:43.418Z,23.12
2019-05-25T06:57:44.044Z,23.45
2019-05-25T06:58:43.375Z,23.65
2019-05-25T06:59:43.343Z,23.58
2019-05-25T07:00:43.340Z,23.46
2019-05-25T07:01:43.377Z,23.47
2019-05-25T07:02:43.414Z,23.42
2019-05-25T07:03:43.324Z,23.50
2019-05-25T07:04:44.093Z,23.55
2019-05-25T07:05:43.306Z,23.65
2019-05-25T07:06:43.272Z,23.68
2019-05-25T07:07:43.260Z,23.62
2019-05-25T07:08:43.246Z,23.57
2019-05-25T07:09:43.228Z,23.49
2019-05-25T07:10:43.248Z,23.40
2019-05-25T07:11:43.307Z,23.40
2019-05-25T07:12:43.211Z,23.53
2019-05-25T07:13:43.229Z,23.65
2019-05-25T07:14:43.184Z,23.68
2019-05-25T07:15:43.169Z,23.67
2019-05-25T07:16:43.158Z,23.68
2019-05-25T07:17:43.205Z,23.50
2019-05-25T07:18:43.155Z,23.39
2019-05-25T07:19:43.129Z,23.46
2019-05-25T07:20:43.151Z,23.57
2019-05-25T07:21:43.107Z,23.61
2019-05-25T07:22:43.120Z,23.62
2019-05-25T07:23:43.079Z,23.64
2019-05-25T07:24:43.080Z,23.55
2019-05-25T07:25:43.111Z,23.61
2019-05-25T07:26:43.050Z,23.71
2019-05-25T07:27:58.276Z,23.85
2019-05-25T07:28:44.039Z,24.12
2019-05-25T07:29:43.021Z,24.29
2019-05-25T07:30:46.069Z,24.41
2019-05-25T07:31:43.011Z,24.47
2019-05-25T07:32:42.998Z,24.49
2019-05-25T07:33:42.981Z,24.47
2019-05-25T07:34:42.995Z,24.50
2019-05-25T07:35:42.958Z,24.49
2019-05-25T07:36:42.972Z,24.45
2019-05-25T07:37:42.933Z,24.52
2019-05-25T07:38:42.933Z,24.59
2019-05-25T07:39:42.963Z,24.60
2019-05-25T07:40:42.926Z,24.57
2019-05-25T07:41:43.003Z,24.54
2019-05-25T07:42:42.883Z,24.42
2019-05-25T07:43:42.881Z,24.41
2019-05-25T07:44:43.706Z,24.23
2019-05-25T07:45:42.885Z,24.08
2019-05-25T07:46:42.874Z,24.02
2019-05-25T07:47:42.832Z,24.07
2019-05-25T07:48:42.926Z,24.13
2019-05-25T07:49:42.805Z,24.24
2019-05-25T07:50:42.795Z,24.45
2019-05-25T07:51:42.802Z,24.50
2019-05-25T07:52:42.798Z,24.38
2019-05-25T07:53:42.766Z,24.39
2019-05-25T07:54:42.753Z,24.49
2019-05-25T07:55:42.756Z,24.56
2019-05-25T07:56:42.820Z,24.61
2019-05-25T07:57:42.724Z,24.68
2019-05-25T07:58:42.730Z,24.73
2019-05-25T07:59:42.712Z,24.79
2019-05-25T08:00:42.802Z,24.87
2019-05-25T08:01:42.745Z,24.88
2019-05-25T08:02:42.742Z,24.90
2019-05-25T08:03:42.783Z,24.92
2019-05-25T08:04:42.675Z,24.97
2019-05-25T08:05:42.635Z,25.01
2019-05-25T08:06:42.659Z,25.07
2019-05-25T08:07:42.679Z,25.16
2019-05-25T08:08:42.742Z,25.32
2019-05-25T08:09:42.619Z,25.28
2019-05-25T08:10:42.608Z,25.38
2019-05-25T08:11:42.581Z,25.59
2019-05-25T08:12:42.590Z,25.82
2019-05-25T08:13:42.827Z,26.04
2019-05-25T08:14:45.000Z,26.22
2019-05-25T08:15:42.622Z,26.24
2019-05-25T08:16:42.535Z,25.97
2019-05-25T08:17:42.646Z,25.99
2019-05-25T08:18:42.824Z,26.08
2019-05-25T08:19:43.366Z,26.18
2019-05-25T08:20:42.482Z,26.35
2019-05-25T08:21:42.757Z,26.44
2019-05-25T08:22:42.534Z,26.17
2019-05-25T08:23:42.454Z,25.30
2019-05-25T08:24:42.460Z,24.87
2019-05-25T08:25:42.446Z,24.39
2019-05-25T08:26:42.433Z,24.24
2019-05-25T08:27:42.436Z,24.52
2019-05-25T08:28:42.438Z,24.87
2019-05-25T08:29:42.384Z,25.13
2019-05-25T08:30:42.404Z,25.34
2019-05-25T08:31:42.367Z,25.47
2019-05-25T08:32:42.356Z,25.64
2019-05-25T08:33:42.371Z,25.80
2019-05-25T08:34:42.850Z,25.72
2019-05-25T08:35:42.358Z,25.17
2019-05-25T08:36:42.325Z,24.60
2019-05-25T08:37:42.361Z,24.26
2019-05-25T08:38:42.297Z,24.26
2019-05-25T08:39:42.277Z,24.50
2019-05-25T08:40:42.303Z,24.85
2019-05-25T08:41:45.295Z,25.06
2019-05-25T08:42:42.248Z,25.16
2019-05-25T08:43:42.242Z,25.25
2019-05-25T08:44:42.227Z,25.37
2019-05-25T08:45:42.268Z,25.50
2019-05-25T08:46:42.226Z,25.79
2019-05-25T08:47:42.188Z,26.01
2019-05-25T08:48:42.190Z,26.15
2019-05-25T08:49:42.167Z,26.20
2019-05-25T08:50:42.168Z,26.37
2019-05-25T08:51:42.191Z,26.25
2019-05-25T08:52:42.140Z,26.18
2019-05-25T08:53:42.462Z,26.24
2019-05-25T08:54:42.342Z,26.32
2019-05-25T08:55:42.119Z,26.36
2019-05-25T08:56:42.100Z,26.46
2019-05-25T08:57:42.109Z,26.54
2019-05-25T08:58:48.479Z,26.61
2019-05-25T08:59:43.069Z,26.67
2019-05-25T09:00:42.090Z,26.86
2019-05-25T09:01:42.080Z,26.96
2019-05-25T09:02:42.033Z,26.98
2019-05-25T09:03:42.019Z,27.14
2019-05-25T09:04:42.040Z,27.28
2019-05-25T09:05:42.058Z,27.42
2019-05-25T09:06:42.008Z,27.59
2019-05-25T09:07:42.025Z,27.70
2019-05-25T09:08:41.980Z,27.77
2019-05-25T09:09:42.055Z,27.73
2019-05-25T09:10:41.975Z,27.31
2019-05-25T09:11:42.755Z,27.29
2019-05-25T09:12:42.033Z,27.47
2019-05-25T09:13:42.015Z,27.71
2019-05-25T09:14:41.984Z,27.84
2019-05-25T09:15:41.959Z,27.98
2019-05-25T09:16:41.920Z,28.13
2019-05-25T09:17:41.924Z,27.98
2019-05-25T09:18:41.924Z,27.98
2019-05-25T09:19:41.904Z,28.22
2019-05-25T09:20:41.842Z,28.63
2019-05-25T09:21:41.849Z,28.96
2019-05-25T09:22:41.825Z,29.10
2019-05-25T09:23:41.836Z,29.25
2019-05-25T09:24:41.862Z,29.11
2019-05-25T09:25:41.798Z,28.96
2019-05-25T09:26:41.816Z,28.68
2019-05-25T09:27:41.804Z,28.58
2019-05-25T09:28:41.826Z,28.72
2019-05-25T09:29:41.779Z,28.96
2019-05-25T09:30:41.859Z,29.08
2019-05-25T09:31:41.925Z,29.13
2019-05-25T09:32:41.781Z,29.18
2019-05-25T09:33:41.752Z,29.20
2019-05-25T09:34:41.774Z,29.28
2019-05-25T09:35:41.718Z,29.00
2019-05-25T09:36:41.698Z,29.00
2019-05-25T09:37:41.695Z,29.01
2019-05-25T09:38:43.371Z,29.08
2019-05-25T09:39:41.643Z,28.93
2019-05-25T09:40:41.919Z,28.91
2019-05-25T09:41:42.110Z,28.91
2019-05-25T09:42:41.716Z,28.66
2019-05-25T09:43:41.629Z,28.47
2019-05-25T09:44:41.589Z,28.10
2019-05-25T09:45:41.578Z,27.91
2019-05-25T09:46:41.600Z,27.86
2019-05-25T09:47:41.592Z,27.85
2019-05-25T09:48:41.551Z,27.80
2019-05-25T09:49:41.542Z,27.80
2019-05-25T09:50:41.523Z,27.74
2019-05-25T09:51:41.545Z,27.10
2019-05-25T09:52:41.513Z,26.46
2019-05-25T09:53:41.533Z,26.15
2019-05-25T09:54:41.522Z,26.08
2019-05-25T09:55:41.561Z,25.94
2019-05-25T09:56:41.977Z,25.80
2019-05-25T09:57:42.025Z,25.75
2019-05-25T09:58:41.490Z,25.80
2019-05-25T09:59:41.480Z,25.82
2019-05-25T10:00:41.444Z,25.74
2019-05-25T10:01:41.473Z,25.82
2019-05-25T10:02:41.858Z,25.94
2019-05-25T10:03:41.412Z,25.99
2019-05-25T10:04:41.375Z,26.02
2019-05-25T10:05:41.373Z,26.05
2019-05-25T10:06:41.365Z,26.11
2019-05-25T10:07:41.376Z,26.17
2019-05-25T10:08:41.334Z,26.20
2019-05-25T10:09:41.394Z,26.12
2019-05-25T10:10:41.397Z,26.11
2019-05-25T10:11:41.330Z,26.17
2019-05-25T10:12:41.326Z,26.20
2019-05-25T10:13:41.318Z,26.06
2019-05-25T10:14:41.377Z,25.99
2019-05-25T10:15:41.325Z,25.93
2019-05-25T10:16:41.295Z,25.89
2019-05-25T10:17:41.277Z,25.83
2019-05-25T10:18:41.228Z,25.80
2019-05-25T10:19:41.329Z,25.79
2019-05-25T10:20:41.229Z,25.77
2019-05-25T10:21:41.258Z,25.77
2019-05-25T10:22:41.262Z,25.74
2019-05-25T10:23:41.202Z,25.56
2019-05-25T10:24:41.213Z,25.47
2019-05-25T10:25:41.168Z,25.46
2019-05-25T10:26:41.160Z,25.47
2019-05-25T10:27:41.245Z,25.44
2019-05-25T10:28:41.176Z,25.46
2019-05-25T10:29:41.177Z,25.54
2019-05-25T10:30:41.167Z,25.62
2019-05-25T10:31:41.109Z,25.71
2019-05-25T10:32:41.180Z,25.74
2019-05-25T10:33:41.075Z,25.82
2019-05-25T10:34:41.081Z,25.91
2019-05-25T10:35:41.054Z,25.94
2019-05-25T10:36:41.038Z,25.87
2019-05-25T10:37:41.032Z,25.84
2019-05-25T10:38:41.019Z,25.69
2019-05-25T10:39:41.040Z,25.65
2019-05-25T10:40:41.022Z,25.54
2019-05-25T10:41:40.985Z,25.52
2019-05-25T10:42:40.985Z,25.52
2019-05-25T10:43:40.983Z,25.52
2019-05-25T10:44:40.993Z,25.52
2019-05-25T10:45:40.951Z,25.53
2019-05-25T10:46:40.933Z,25.57
2019-05-25T10:47:40.921Z,25.64
2019-05-25T10:48:40.922Z,25.71
2019-05-25T10:49:40.974Z,25.75
2019-05-25T10:50:40.905Z,25.83
2019-05-25T10:51:40.897Z,25.83
2019-05-25T10:52:40.884Z,25.80
2019-05-25T10:53:40.866Z,25.74
2019-05-25T10:54:40.877Z,25.71
2019-05-25T10:55:40.859Z,25.71
2019-05-25T10:56:40.849Z,25.53
2019-05-25T10:57:40.814Z,25.47
2019-05-25T10:58:40.813Z,25.46
2019-05-25T10:59:52.411Z,25.46
2019-05-25T11:00:41.807Z,25.47
2019-05-25T11:01:40.779Z,25.44
2019-05-25T11:02:40.771Z,25.44
2019-05-25T11:03:40.776Z,25.44
2019-05-25T11:04:40.826Z,25.46
2019-05-25T11:05:40.789Z,25.47
2019-05-25T11:06:40.745Z,25.52
2019-05-25T11:07:40.715Z,25.56
2019-05-25T11:08:40.699Z,25.64
2019-05-25T11:09:40.688Z,25.72
2019-05-25T11:10:40.700Z,25.80
2019-05-25T11:11:40.670Z,25.89
2019-05-25T11:12:41.060Z,25.94
2019-05-25T11:13:40.648Z,25.77
2019-05-25T11:14:40.848Z,25.72
2019-05-25T11:15:40.668Z,25.43
2019-05-25T11:16:40.621Z,25.49
2019-05-25T11:17:40.624Z,25.57
2019-05-25T11:18:41.839Z,25.67
2019-05-25T11:19:40.610Z,25.83
2019-05-25T11:20:40.671Z,25.89
2019-05-25T11:21:40.575Z,25.90
2019-05-25T11:22:40.699Z,25.89
2019-05-25T11:23:40.622Z,25.79
2019-05-25T11:24:40.593Z,25.87
2019-05-25T11:25:40.532Z,25.91
2019-05-25T11:26:40.511Z,25.94
2019-05-25T11:27:40.492Z,25.94
2019-05-25T11:28:40.513Z,25.98
2019-05-25T11:29:40.513Z,25.90
2019-05-25T11:30:40.462Z,25.90
2019-05-25T11:31:40.452Z,25.93
2019-05-25T11:32:40.475Z,26.01
2019-05-25T11:33:40.435Z,26.01
2019-05-25T11:34:40.455Z,26.08
2019-05-25T11:35:40.405Z,25.89
2019-05-25T11:36:40.414Z,25.71
2019-05-25T11:37:40.413Z,25.72
2019-05-25T11:38:40.375Z,25.64
2019-05-25T11:39:40.395Z,25.57
2019-05-25T11:40:40.427Z,25.61
2019-05-25T11:41:40.374Z,25.67
2019-05-25T11:42:40.353Z,25.74
2019-05-25T11:43:40.334Z,25.86
2019-05-25T11:44:40.315Z,25.89
2019-05-25T11:45:40.356Z,25.86
2019-05-25T11:46:40.296Z,25.82
2019-05-25T11:47:40.315Z,25.80
2019-05-25T11:48:40.324Z,25.83
2019-05-25T11:49:40.274Z,25.87
2019-05-25T11:50:40.249Z,25.80
2019-05-25T11:51:40.245Z,25.89
2019-05-25T11:52:40.517Z,26.01
2019-05-25T11:53:40.219Z,26.02
2019-05-25T11:54:40.238Z,25.83
2019-05-25T11:55:40.228Z,25.69
2019-05-25T11:56:40.189Z,25.56
2019-05-25T11:57:40.211Z,25.44
2019-05-25T11:58:47.583Z,25.42
2019-05-25T11:59:41.190Z,25.39
2019-05-25T12:00:40.231Z,25.35
2019-05-25T12:01:40.180Z,25.32
2019-05-25T12:02:40.125Z,25.20
2019-05-25T12:03:40.128Z,25.13
2019-05-25T12:04:40.104Z,24.98
2019-05-25T12:05:40.102Z,24.87
2019-05-25T12:06:40.110Z,24.75
2019-05-25T12:07:43.863Z,24.53
2019-05-25T12:08:40.078Z,24.23
2019-05-25T12:09:40.062Z,24.12
2019-05-25T12:10:40.072Z,23.87
2019-05-25T12:11:40.072Z,23.83
2019-05-25T12:12:40.043Z,23.83
2019-05-25T12:13:40.042Z,23.85
2019-05-25T12:14:40.002Z,23.92
2019-05-25T12:15:39.995Z,23.90
2019-05-25T12:16:40.005Z,23.89
2019-05-25T12:17:40.002Z,23.87
2019-05-25T12:18:39.962Z,23.86
2019-05-25T12:19:39.947Z,23.95
2019-05-25T12:20:39.924Z,24.01
2019-05-25T12:21:39.924Z,24.05
2019-05-25T12:22:39.976Z,24.12
2019-05-25T12:23:39.904Z,24.14
2019-05-25T12:24:39.920Z,24.13
2019-05-25T12:25:39.917Z,24.14
2019-05-25T12:26:39.885Z,24.22
2019-05-25T12:27:39.918Z,24.17
2019-05-25T12:28:39.847Z,24.01
2019-05-25T12:29:39.836Z,23.94
2019-05-25T12:30:41.254Z,23.92
2019-05-25T12:31:39.817Z,23.97
2019-05-25T12:32:39.824Z,24.02
2019-05-25T12:33:39.820Z,24.10
2019-05-25T12:34:39.807Z,24.10
2019-05-25T12:35:39.808Z,24.16
2019-05-25T12:36:39.769Z,24.19
2019-05-25T12:37:39.778Z,24.19
2019-05-25T12:38:39.737Z,24.20
2019-05-25T12:39:39.940Z,24.20
2019-05-25T12:40:52.770Z,24.23
2019-05-25T12:41:40.760Z,24.24
2019-05-25T12:42:39.728Z,24.27
2019-05-25T12:43:39.687Z,24.29
2019-05-25T12:44:39.715Z,24.27
2019-05-25T12:45:42.123Z,24.26
2019-05-25T12:46:39.656Z,24.24
2019-05-25T12:47:39.713Z,24.19
2019-05-25T12:48:39.641Z,24.08
2019-05-25T12:49:50.123Z,24.08
2019-05-25T12:50:40.634Z,24.07
2019-05-25T12:51:39.591Z,24.08
2019-05-25T12:52:39.626Z,24.10